Time;durP1;ratioP1;P1;durP2;ratioP2;P2;SDS_P1;SDS_P2;PMS_P1;PMS_P2;Temp;Humidity;BMP_temperature;BMP_pressure;BME280_temperature;BME280_humidity;BME280_pressure;Samples;Min_cycle;Max_cycle;Signal;HPM_P1;HPM_P2
2024/02/24 00:00:32;;;;;;;19.73;13.97;;;;;;;8.78;96.74;99109.06;5088925;28;20196;-61
2024/02/24 00:03:00;;;;;;;20.50;14.77;;;;;;;8.79;96.68;99113.34;5095814;28;20196;-60
2024/02/24 00:05:30;;;;;;;19.60;15.23;;;;;;;8.79;97.05;99100.50;5095027;28;20228;-61
2024/02/24 00:07:58;;;;;;;21.97;15.67;;;;;;;8.78;96.49;99091.09;5092959;28;20201;-63
2024/02/24 00:10:26;;;;;;;22.07;15.93;;;;;;;8.76;97.12;99100.53;5088804;28;20265;-61
2024/02/24 00:12:54;;;;;;;24.30;15.97;;;;;;;8.76;96.77;99092.84;5088353;28;20298;-61
2024/02/24 00:15:22;;;;;;;22.97;17.00;;;;;;;8.74;96.40;99089.47;5093029;28;20525;-61
2024/02/24 00:17:50;;;;;;;22.87;16.73;;;;;;;8.67;96.96;99094.72;5092581;28;20197;-62
2024/02/24 00:20:17;;;;;;;22.43;17.17;;;;;;;8.64;96.86;99093.94;5086061;28;20211;-60
2024/02/24 00:22:47;;;;;;;27.90;17.37;;;;;;;8.60;97.20;99077.72;5088352;28;20204;-62
2024/02/24 00:25:15;;;;;;;25.87;18.53;;;;;;;8.58;97.69;99079.50;5092238;28;20199;-62
2024/02/24 00:27:43;;;;;;;26.83;17.83;;;;;;;8.55;97.60;99084.69;5085307;28;20215;-62
2024/02/24 00:30:13;;;;;;;25.87;17.63;;;;;;;8.54;98.70;99082.97;5092160;28;20299;-61
2024/02/24 00:32:41;;;;;;;27.00;17.30;;;;;;;8.55;99.05;99086.41;5092355;28;20205;-61
2024/02/24 00:35:09;;;;;;;26.70;17.43;;;;;;;8.53;98.90;99093.28;5092944;28;20557;-61
2024/02/24 00:37:37;;;;;;;28.10;17.83;;;;;;;8.50;98.99;99080.50;5089455;28;20212;-61
2024/02/24 00:40:08;;;;;;;26.53;18.07;;;;;;;8.50;99.05;99073.63;5091828;28;20200;-62
2024/02/24 00:42:37;;;;;;;27.23;18.83;;;;;;;8.46;99.44;99074.56;5092485;28;20208;-62
2024/02/24 00:45:05;;;;;;;30.07;18.33;;;;;;;8.43;99.06;99072.06;5092716;28;20212;-62
2024/02/24 00:47:33;;;;;;;25.27;18.37;;;;;;;8.37;99.69;99073.03;5088411;28;20211;-62
2024/02/24 00:50:02;;;;;;;28.57;18.83;;;;;;;8.37;100.00;99065.34;5089174;28;20207;-61
2024/02/24 00:52:30;;;;;;;29.30;18.20;;;;;;;8.36;99.73;99063.63;5092262;28;20292;-60
2024/02/24 00:54:58;;;;;;;23.83;18.00;;;;;;;8.33;100.00;99058.53;5091437;28;20319;-61
2024/02/24 00:57:27;;;;;;;26.53;18.50;;;;;;;8.32;99.60;99058.53;5081157;28;20657;-60
2024/02/24 00:59:55;;;;;;;30.30;19.57;;;;;;;8.31;100.00;99069.69;5088920;28;20621;-61
2024/02/24 01:02:23;;;;;;;27.93;19.40;;;;;;;8.31;99.73;99062.00;5095101;28;20204;-60
2024/02/24 01:04:52;;;;;;;25.33;18.30;;;;;;;8.30;100.00;99058.59;5092369;28;20646;-61
2024/02/24 01:07:20;;;;;;;26.80;18.40;;;;;;;8.29;99.76;99050.94;5082465;28;20621;-61
2024/02/24 01:09:48;;;;;;;25.77;18.63;;;;;;;8.28;100.00;99044.91;5091667;28;20212;-61
2024/02/24 01:12:16;;;;;;;23.60;17.50;;;;;;;8.27;99.88;99038.09;5090458;28;20260;-61
2024/02/24 01:14:45;;;;;;;24.70;17.60;;;;;;;8.26;99.32;99043.28;5090783;28;20197;-61
2024/02/24 01:17:15;;;;;;;23.20;18.07;;;;;;;8.24;99.70;99027.91;5083271;28;20205;-61
2024/02/24 01:19:43;;;;;;;24.77;17.30;;;;;;;8.25;99.94;99039.88;5090552;28;20201;-63
2024/02/24 01:22:12;;;;;;;22.23;16.27;;;;;;;8.22;99.76;99025.38;5086756;28;20209;-61
2024/02/24 01:24:40;;;;;;;22.20;16.67;;;;;;;8.21;100.00;99026.25;5080766;28;20204;-63
2024/02/24 01:27:08;;;;;;;20.60;16.20;;;;;;;8.24;99.87;99022.75;5090640;28;20653;-61
2024/02/24 01:29:37;;;;;;;21.37;16.53;;;;;;;8.23;99.77;99032.19;5088411;28;20208;-62
2024/02/24 01:32:07;;;;;;;20.50;15.67;;;;;;;8.23;99.54;99034.75;5090771;28;20211;-64
2024/02/24 01:34:34;;;;;;;22.37;16.03;;;;;;;8.25;99.88;99021.91;5087526;28;20211;-66
2024/02/24 01:37:03;;;;;;;20.93;14.83;;;;;;;8.24;98.76;99013.34;5092431;28;20236;-62
2024/02/24 01:39:32;;;;;;;22.60;15.87;;;;;;;8.24;99.17;99021.03;5091543;28;20710;-61
2024/02/24 01:42:00;;;;;;;19.80;14.33;;;;;;;8.23;98.84;99016.78;5091005;28;21609;-60
2024/02/24 01:44:27;;;;;;;19.07;13.73;;;;;;;8.24;99.11;99021.03;5091012;28;20215;-62
2024/02/24 01:46:55;;;;;;;17.57;13.77;;;;;;;8.24;98.14;99017.63;5087309;28;20197;-61
2024/02/24 01:49:25;;;;;;;18.13;14.30;;;;;;;8.23;98.46;99014.22;5081466;28;20204;-63
2024/02/24 01:51:53;;;;;;;20.30;13.80;;;;;;;8.24;98.16;99010.78;5083887;28;20203;-63
2024/02/24 01:54:22;;;;;;;17.80;13.47;;;;;;;8.24;98.04;99002.22;5083153;28;20620;-60
2024/02/24 01:56:50;;;;;;;17.73;13.03;;;;;;;8.24;97.61;99008.22;5090635;28;20205;-60
2024/02/24 01:59:19;;;;;;;17.80;13.57;;;;;;;8.24;97.20;99009.94;5091061;28;20236;-62
2024/02/24 02:01:48;;;;;;;14.67;12.47;;;;;;;8.23;98.00;99003.97;5090386;28;20200;-59
2024/02/24 02:04:16;;;;;;;18.23;13.43;;;;;;;8.23;97.16;98996.25;5089844;28;20219;-61
2024/02/24 02:06:46;;;;;;;17.30;13.70;;;;;;;8.20;97.35;99000.59;5079979;28;20205;-63
2024/02/24 02:09:14;;;;;;;17.13;12.67;;;;;;;8.20;97.54;98986.03;5090725;28;20667;-61
2024/02/24 02:11:43;;;;;;;15.87;12.10;;;;;;;8.23;97.98;99003.13;5082876;28;20576;-61
2024/02/24 02:14:27;;;;;;;16.80;12.57;;;;;;;8.24;97.47;98979.13;5090544;28;20631;-64
2024/02/24 02:16:55;;;;;;;15.50;12.23;;;;;;;8.22;97.59;98993.72;5090587;28;20212;-60
2024/02/24 02:19:23;;;;;;;14.77;11.80;;;;;;;8.20;97.08;98980.06;5087687;28;20204;-61
2024/02/24 02:21:55;;;;;;;15.97;12.00;;;;;;;8.18;97.05;98982.69;5093816;28;20710;-62
2024/02/24 02:24:24;;;;;;;14.57;11.57;;;;;;;8.20;97.12;98980.91;5084397;28;20228;-61
2024/02/24 02:26:52;;;;;;;15.40;11.23;;;;;;;8.18;96.45;98974.13;5090218;28;20284;-61
2024/02/24 02:29:20;;;;;;;16.73;12.70;;;;;;;8.14;96.79;98970.78;5090787;28;20204;-60
2024/02/24 02:31:50;;;;;;;14.37;11.63;;;;;;;8.12;96.79;98969.13;5088993;28;20201;-64
2024/02/24 02:34:18;;;;;;;14.33;10.63;;;;;;;8.11;96.38;98975.13;5097139;28;20738;-61
2024/02/24 02:36:46;;;;;;;14.00;11.10;;;;;;;8.08;96.81;98970.91;5091776;28;20220;-61
2024/02/24 02:39:14;;;;;;;13.03;10.90;;;;;;;8.08;96.74;98970.91;5097833;28;20196;-61
2024/02/24 02:41:44;;;;;;;14.10;10.97;;;;;;;8.09;96.06;98971.72;5097248;28;20545;-60
2024/02/24 02:44:14;;;;;;;13.13;11.57;;;;;;;8.06;95.59;98972.63;5092708;28;20270;-62
2024/02/24 02:46:46;;;;;;;15.53;11.77;;;;;;;8.06;96.58;98964.94;5095979;28;20203;-62
2024/02/24 02:49:14;;;;;;;14.97;11.33;;;;;;;8.05;96.38;98958.13;5097398;28;20196;-61
2024/02/24 02:51:42;;;;;;;14.40;11.50;;;;;;;8.02;95.90;98950.47;5096963;28;20616;-60
2024/02/24 02:54:11;;;;;;;13.50;10.93;;;;;;;8.04;95.42;98948.75;5097029;28;20188;-62
2024/02/24 02:56:39;;;;;;;16.03;11.70;;;;;;;8.03;95.43;98949.63;5088715;28;20620;-62
2024/02/24 02:59:09;;;;;;;14.40;11.60;;;;;;;8.02;95.62;98950.47;5106442;28;20197;-70
2024/02/24 03:01:37;;;;;;;15.43;11.57;;;;;;;8.00;95.96;98939.41;5092213;28;20211;-61
2024/02/24 03:04:05;;;;;;;13.67;11.43;;;;;;;7.98;96.21;98930.88;5095497;28;20296;-62
2024/02/24 03:06:33;;;;;;;14.27;11.70;;;;;;;7.97;96.38;98934.34;5097388;28;20200;-62
2024/02/24 03:09:01;;;;;;;14.93;11.23;;;;;;;7.97;96.00;98939.47;5096018;28;20205;-65
2024/02/24 03:11:31;;;;;;;14.77;11.77;;;;;;;7.98;95.73;98924.03;5096314;28;20281;-61
2024/02/24 03:13:59;;;;;;;13.37;10.87;;;;;;;7.96;95.87;98912.97;5091142;28;20201;-61
2024/02/24 03:16:29;;;;;;;14.00;11.57;;;;;;;7.92;95.26;98897.69;5096090;28;20224;-61
2024/02/24 03:18:57;;;;;;;15.40;11.80;;;;;;;7.88;95.84;98913.97;5096971;28;20358;-60
2024/02/24 03:21:26;;;;;;;14.50;11.10;;;;;;;7.87;95.66;98927.69;5084093;28;20647;-64
2024/02/24 03:23:54;;;;;;;14.53;11.40;;;;;;;7.86;95.87;98933.69;5092692;28;20230;-60
2024/02/24 03:26:22;;;;;;;14.77;11.70;;;;;;;7.86;96.44;98941.38;5096672;28;20204;-61
2024/02/24 03:28:50;;;;;;;17.13;11.30;;;;;;;7.87;96.64;98940.50;5090840;28;20209;-61
2024/02/24 03:31:18;;;;;;;16.07;12.33;;;;;;;7.90;96.31;98945.59;5089894;28;20200;-60
2024/02/24 03:33:48;;;;;;;14.50;11.70;;;;;;;7.90;95.89;98950.72;5095043;28;20204;-66
2024/02/24 03:36:19;;;;;;;14.20;11.13;;;;;;;7.93;96.33;98948.09;5096619;28;20258;-61
2024/02/24 03:38:47;;;;;;;12.87;10.73;;;;;;;7.94;96.15;98942.94;5096504;28;20724;-63
2024/02/24 03:41:15;;;;;;;13.80;11.43;;;;;;;7.96;96.34;98942.91;5096414;28;20251;-60
2024/02/24 03:43:43;;;;;;;16.07;11.77;;;;;;;7.99;96.03;98942.88;5093567;28;20205;-62
2024/02/24 03:46:11;;;;;;;16.83;12.07;;;;;;;8.01;95.19;98946.22;5093348;28;20197;-60
2024/02/24 03:48:39;;;;;;;13.67;10.97;;;;;;;8.00;95.35;98936.84;5085864;28;20233;-61
2024/02/24 03:51:09;;;;;;;16.00;11.40;;;;;;;7.99;94.93;98937.72;5093266;28;20207;-60
2024/02/24 03:53:37;;;;;;;13.73;10.83;;;;;;;8.01;95.29;98943.66;5086125;28;20207;-61
2024/02/24 03:56:05;;;;;;;13.13;10.60;;;;;;;8.00;94.78;98941.97;5093354;28;20211;-63
2024/02/24 03:58:33;;;;;;;15.00;11.47;;;;;;;8.01;95.25;98942.81;5093308;28;20201;-62
2024/02/24 04:01:01;;;;;;;13.27;10.97;;;;;;;8.03;95.61;98944.50;5092617;28;20215;-62
2024/02/24 04:03:29;;;;;;;14.60;10.90;;;;;;;8.05;95.31;98945.28;5093229;28;20292;-61
2024/02/24 04:05:58;;;;;;;13.43;10.60;;;;;;;8.03;94.93;98931.66;5085123;28;20208;-66
2024/02/24 04:08:27;;;;;;;12.97;11.37;;;;;;;8.05;95.49;98935.03;5081146;28;20219;-60
2024/02/24 04:10:55;;;;;;;12.13;10.13;;;;;;;8.06;94.29;98943.56;5092106;28;20583;-61
2024/02/24 04:13:23;;;;;;;17.07;11.50;;;;;;;8.07;95.01;98937.59;5092543;28;20323;-63
2024/02/24 04:15:51;;;;;;;14.03;11.57;;;;;;;8.08;94.70;98945.25;5090707;28;20683;-61
2024/02/24 04:18:19;;;;;;;16.50;10.77;;;;;;;8.08;94.66;98934.97;5092909;28;20212;-61
2024/02/24 04:20:47;;;;;;;13.13;10.80;;;;;;;8.10;94.32;98938.38;5091946;28;20240;-62
2024/02/24 04:23:16;;;;;;;12.10;10.53;;;;;;;8.10;93.97;98938.38;5092656;28;20201;-61
2024/02/24 04:25:45;;;;;;;12.70;10.60;;;;;;;8.11;93.78;98934.09;5083667;28;20201;-61
2024/02/24 04:28:14;;;;;;;17.20;11.27;;;;;;;8.12;93.78;98952.00;5088866;28;20628;-60
2024/02/24 04:30:44;;;;;;;13.40;11.40;;;;;;;8.12;93.71;98946.88;5090428;28;20201;-60
2024/02/24 04:33:12;;;;;;;13.90;10.17;;;;;;;8.12;93.60;98946.88;5093073;28;20219;-61
2024/02/24 04:35:40;;;;;;;13.97;10.83;;;;;;;8.12;93.78;98939.16;5090929;28;20726;-61
2024/02/24 04:38:08;;;;;;;13.43;11.37;;;;;;;8.12;93.86;98934.03;5092386;28;20260;-61
2024/02/24 04:40:36;;;;;;;12.90;10.47;;;;;;;8.09;93.19;98928.13;5087620;28;20201;-61
2024/02/24 04:43:05;;;;;;;14.73;10.73;;;;;;;8.07;93.43;98923.03;5090590;28;20671;-60
2024/02/24 04:45:35;;;;;;;12.70;10.03;;;;;;;8.07;94.19;98925.59;5084586;28;20653;-61
2024/02/24 04:48:03;;;;;;;13.33;10.73;;;;;;;8.06;93.54;98929.00;5092360;28;20229;-61
2024/02/24 04:50:32;;;;;;;12.40;9.97;;;;;;;8.07;93.70;98951.25;5091927;28;20204;-62
2024/02/24 04:53:00;;;;;;;15.70;10.83;;;;;;;8.09;92.99;98935.81;5092094;28;20624;-66
2024/02/24 04:55:28;;;;;;;12.97;10.10;;;;;;;8.06;93.83;98941.84;5091860;28;20261;-62
2024/02/24 04:57:56;;;;;;;13.47;10.37;;;;;;;8.08;94.14;98931.56;5089382;28;20247;-61
2024/02/24 05:00:25;;;;;;;12.60;11.20;;;;;;;8.08;92.67;98924.72;5086921;28;20236;-61
2024/02/24 05:02:53;;;;;;;12.90;10.47;;;;;;;8.06;93.76;98929.00;5080821;28;20205;-62
2024/02/24 05:05:21;;;;;;;13.70;10.70;;;;;;;8.04;94.01;98927.38;5090008;28;20262;-61
2024/02/24 05:07:49;;;;;;;12.53;9.97;;;;;;;8.02;93.82;98919.69;5091863;28;20242;-60
2024/02/24 05:10:17;;;;;;;14.27;10.80;;;;;;;7.97;93.78;98921.50;5091559;28;20730;-62
2024/02/24 05:12:47;;;;;;;15.40;11.27;;;;;;;7.97;94.05;98908.69;5091942;28;20781;-65
2024/02/24 05:15:17;;;;;;;13.43;10.83;;;;;;;7.94;93.86;98906.19;5089316;28;20204;-63
2024/02/24 05:17:46;;;;;;;13.37;10.93;;;;;;;7.92;93.67;98888.28;5082738;28;20365;-62
2024/02/24 05:20:15;;;;;;;15.20;10.73;;;;;;;7.90;94.60;98901.97;5090382;28;20287;-61
2024/02/24 05:22:43;;;;;;;13.90;9.87;;;;;;;7.88;94.23;98893.47;5090784;28;20204;-61
2024/02/24 05:25:11;;;;;;;14.83;9.43;;;;;;;7.86;94.32;98898.63;5091236;28;20221;-61
2024/02/24 05:27:39;;;;;;;13.17;9.13;;;;;;;7.85;94.86;98885.84;5091699;28;20219;-60
2024/02/24 05:30:08;;;;;;;14.80;10.87;;;;;;;7.86;94.43;98890.94;5087687;28;20200;-61
2024/02/24 05:32:36;;;;;;;11.27;9.40;;;;;;;7.84;94.75;98879.88;5084548;28;20587;-60
2024/02/24 05:35:06;;;;;;;12.97;10.53;;;;;;;7.84;94.75;98877.31;5091590;28;20225;-61
2024/02/24 05:37:34;;;;;;;14.80;10.83;;;;;;;7.86;94.18;98887.53;5089030;28;20672;-61
2024/02/24 05:40:02;;;;;;;12.03;10.73;;;;;;;7.87;93.83;98895.19;5089753;28;20208;-61
2024/02/24 05:42:30;;;;;;;14.40;10.30;;;;;;;7.89;93.65;98908.84;5089974;28;20200;-62
2024/02/24 05:44:58;;;;;;;12.33;9.63;;;;;;;7.89;94.12;98888.31;5091103;28;20211;-62
2024/02/24 05:47:27;;;;;;;11.50;9.43;;;;;;;7.90;93.82;98896.84;5091063;28;20204;-61
2024/02/24 05:49:55;;;;;;;10.10;8.83;;;;;;;7.90;93.88;98892.56;5076561;28;20641;-61
2024/02/24 05:52:24;;;;;;;13.50;9.83;;;;;;;7.92;93.01;98898.53;5090776;28;20205;-62
2024/02/24 05:54:52;;;;;;;12.33;9.20;;;;;;;7.90;93.27;98899.41;5087859;28;20646;-62
2024/02/24 05:57:21;;;;;;;12.07;9.70;;;;;;;7.91;93.37;98893.41;5090696;28;20707;-65
2024/02/24 05:59:49;;;;;;;11.53;9.33;;;;;;;7.91;93.65;98898.53;5090499;28;20649;-63
2024/02/24 06:02:18;;;;;;;11.00;8.83;;;;;;;7.93;93.60;98904.50;5090344;28;20649;-63
2024/02/24 06:04:46;;;;;;;11.70;9.20;;;;;;;7.93;92.95;98905.34;5090784;28;20208;-61
2024/02/24 06:07:14;;;;;;;11.27;9.00;;;;;;;7.96;93.31;98904.44;5090748;28;20687;-62
2024/02/24 06:09:43;;;;;;;10.90;8.90;;;;;;;7.95;92.55;98903.59;5091044;28;20964;-61
2024/02/24 06:12:12;;;;;;;10.37;9.10;;;;;;;7.96;91.74;98902.72;5090510;28;20293;-62
2024/02/24 06:14:40;;;;;;;9.07;8.07;;;;;;;7.96;92.59;98907.84;5090215;28;20294;-61
2024/02/24 06:17:08;;;;;;;10.60;8.10;;;;;;;7.98;92.65;98902.69;5085186;28;20216;-61
2024/02/24 06:19:36;;;;;;;10.33;8.80;;;;;;;8.00;91.78;98906.06;5087990;28;20254;-63
2024/02/24 06:22:05;;;;;;;10.70;8.70;;;;;;;8.02;91.38;98895.78;5090147;28;20262;-63
2024/02/24 06:24:33;;;;;;;11.80;8.97;;;;;;;8.03;91.67;98894.88;5090864;28;20613;-62
2024/02/24 06:27:02;;;;;;;10.23;8.67;;;;;;;8.05;92.29;98888.00;5090831;28;20224;-61
2024/02/24 06:29:31;;;;;;;10.27;8.90;;;;;;;8.07;91.11;98907.63;5090118;28;20205;-61
2024/02/24 06:31:59;;;;;;;10.60;8.73;;;;;;;8.06;90.72;98890.53;5086712;28;20668;-61
2024/02/24 06:34:26;;;;;;;12.13;8.50;;;;;;;8.07;90.81;98897.38;5090750;28;20204;-61
2024/02/24 06:36:56;;;;;;;11.00;8.93;;;;;;;8.07;89.86;98891.41;5090560;28;20227;-61
2024/02/24 06:39:24;;;;;;;12.60;8.60;;;;;;;8.06;90.66;98895.66;5090365;28;20243;-63
2024/02/24 06:41:52;;;;;;;10.27;8.10;;;;;;;8.07;90.13;98889.69;5085939;28;20610;-62
2024/02/24 06:44:22;;;;;;;11.57;8.50;;;;;;;8.10;90.22;98907.59;5087018;28;20240;-60
2024/02/24 06:46:50;;;;;;;10.70;7.97;;;;;;;8.12;90.03;98900.69;5088069;28;20667;-61
2024/02/24 06:49:21;;;;;;;10.90;8.00;;;;;;;8.15;89.21;98899.78;5087908;28;20193;-62
2024/02/24 06:51:50;;;;;;;10.87;8.07;;;;;;;8.19;89.61;98912.53;5090327;28;20208;-61
2024/02/24 06:54:18;;;;;;;9.67;7.33;;;;;;;8.23;89.25;98916.72;5090283;28;20563;-62
2024/02/24 06:56:46;;;;;;;10.93;7.50;;;;;;;8.27;88.58;98919.22;5086776;28;20567;-60
2024/02/24 06:59:14;;;;;;;10.23;8.00;;;;;;;8.28;89.03;98920.91;5080819;28;20619;-62
2024/02/24 07:01:44;;;;;;;9.70;7.73;;;;;;;8.26;88.68;98914.97;5085926;28;20656;-63
2024/02/24 07:04:12;;;;;;;10.30;7.57;;;;;;;8.29;89.24;98917.47;5085802;28;20201;-61
2024/02/24 07:06:40;;;;;;;8.60;6.83;;;;;;;8.31;87.90;98905.44;5089386;28;20293;-62
2024/02/24 07:09:08;;;;;;;10.03;8.10;;;;;;;8.33;88.87;98919.94;5088080;28;20193;-62
2024/02/24 07:11:36;;;;;;;10.30;7.03;;;;;;;8.35;88.66;98919.91;5081715;28;20205;-65
2024/02/24 07:14:05;;;;;;;9.40;7.07;;;;;;;8.36;88.13;98929.31;5080487;28;20206;-61
2024/02/24 07:16:33;;;;;;;8.33;7.10;;;;;;;8.36;87.16;98924.19;5085743;28;20211;-62
2024/02/24 07:19:02;;;;;;;9.30;7.60;;;;;;;8.38;87.94;98896.78;5090267;28;20236;-61
2024/02/24 07:21:30;;;;;;;11.93;7.23;;;;;;;8.42;87.80;98893.25;5095334;28;20205;-61
2024/02/24 07:23:59;;;;;;;9.90;7.07;;;;;;;8.45;87.03;98906.03;5088597;28;20201;-67
2024/02/24 07:26:27;;;;;;;9.57;6.70;;;;;;;8.47;87.42;98906.88;5090545;28;20579;-61
2024/02/24 07:28:55;;;;;;;8.53;7.03;;;;;;;8.51;86.98;98907.66;5091156;28;20688;-62
2024/02/24 07:31:23;;;;;;;8.67;7.17;;;;;;;8.53;86.44;98913.56;5084880;28;20945;-62
2024/02/24 07:33:51;;;;;;;8.47;6.83;;;;;;;8.55;86.23;98915.25;5091887;28;20204;-67
2024/02/24 07:36:20;;;;;;;10.13;6.97;;;;;;;8.56;86.38;98923.78;5093500;28;20258;-61
2024/02/24 07:38:48;;;;;;;10.20;6.87;;;;;;;8.59;86.24;98919.44;5093135;28;20676;-61
2024/02/24 07:41:16;;;;;;;8.40;6.30;;;;;;;8.65;85.67;98931.28;5091304;28;20201;-65
2024/02/24 07:43:44;;;;;;;8.23;6.53;;;;;;;8.68;85.27;98933.78;5081547;28;20211;-66
2024/02/24 07:46:20;;;;;;;9.60;6.43;;;;;;;8.70;85.14;98943.16;5093573;28;20676;-66
2024/02/24 07:48:48;;;;;;;10.57;6.40;;;;;;;8.70;84.33;98940.56;5091870;28;20608;-61
2024/02/24 07:51:15;;;;;;;9.60;6.50;;;;;;;8.74;85.19;98950.78;5085608;28;20193;-62
2024/02/24 07:53:45;;;;;;;7.77;6.40;;;;;;;8.78;85.17;98942.13;5093142;28;20201;-62
2024/02/24 07:56:13;;;;;;;8.50;6.80;;;;;;;8.81;85.07;98947.22;5093748;28;20211;-63
2024/02/24 07:58:41;;;;;;;8.40;6.67;;;;;;;8.85;85.18;98943.69;5092144;28;21272;-61
2024/02/24 08:01:11;;;;;;;7.93;6.27;;;;;;;8.86;85.14;98948.78;5093716;28;20207;-64
2024/02/24 08:03:39;;;;;;;7.13;6.03;;;;;;;8.88;84.37;98939.34;5093494;28;20649;-65
2024/02/24 08:06:08;;;;;;;9.47;6.77;;;;;;;8.91;84.48;98948.66;5094680;28;20201;-61
2024/02/24 08:08:36;;;;;;;9.80;6.33;;;;;;;8.89;84.24;98947.88;5090303;28;20249;-62
2024/02/24 08:11:06;;;;;;;8.60;6.70;;;;;;;8.94;84.14;98953.75;5094535;28;20212;-67
2024/02/24 08:13:39;;;;;;;11.40;6.67;;;;;;;8.98;84.53;98957.94;5093174;28;20748;-63
2024/02/24 08:16:08;;;;;;;9.47;6.63;;;;;;;9.03;84.29;98950.97;5093183;28;20196;-61
2024/02/24 08:18:36;;;;;;;8.57;6.20;;;;;;;9.09;83.88;98949.97;5086373;28;20200;-61
2024/02/24 08:21:08;;;;;;;8.07;6.37;;;;;;;9.11;83.15;98955.94;5083996;28;20209;-61
2024/02/24 08:23:37;;;;;;;14.20;6.50;;;;;;;9.12;83.35;98948.19;5092314;28;20291;-62
2024/02/24 08:26:06;;;;;;;7.27;5.87;;;;;;;9.18;83.32;98958.34;5087117;28;20210;-63
2024/02/24 08:28:34;;;;;;;8.40;6.30;;;;;;;9.23;83.38;98968.50;5091470;28;20700;-61
2024/02/24 08:31:02;;;;;;;8.70;6.20;;;;;;;9.24;83.39;98951.34;5088175;28;20567;-62
2024/02/24 08:33:30;;;;;;;9.17;6.27;;;;;;;9.28;83.08;98964.13;5094327;28;20274;-63
2024/02/24 08:35:58;;;;;;;8.20;6.57;;;;;;;9.30;82.45;98964.06;5095628;28;20578;-61
2024/02/24 08:38:27;;;;;;;10.00;6.47;;;;;;;9.31;82.58;98974.31;5086047;28;20277;-62
2024/02/24 08:40:56;;;;;;;7.53;6.50;;;;;;;9.33;82.45;98976.84;5088948;28;20220;-64
2024/02/24 08:43:25;;;;;;;8.20;6.27;;;;;;;9.34;82.32;98971.66;5092820;28;20205;-64
2024/02/24 08:45:53;;;;;;;8.23;6.37;;;;;;;9.37;82.14;98969.03;5093641;28;20201;-63
2024/02/24 08:48:21;;;;;;;8.60;5.83;;;;;;;9.37;82.17;98975.91;5099532;27;20211;-65
2024/02/24 08:50:50;;;;;;;8.57;6.40;;;;;;;9.44;81.73;98980.00;5092671;28;20657;-66
2024/02/24 08:53:18;;;;;;;9.67;6.00;;;;;;;9.46;82.07;98988.50;5092516;28;20201;-66
2024/02/24 08:55:46;;;;;;;7.83;6.50;;;;;;;9.50;81.73;99002.13;5084107;28;20204;-65
2024/02/24 08:58:14;;;;;;;9.87;6.93;;;;;;;9.51;81.36;98998.72;5075146;28;20201;-61
2024/02/24 09:00:44;;;;;;;8.67;5.83;;;;;;;9.53;81.37;99002.91;5089087;28;20771;-60
2024/02/24 09:03:14;;;;;;;8.90;6.50;;;;;;;9.53;80.19;99025.22;5079345;28;20654;-60
2024/02/24 09:05:42;;;;;;;7.17;5.93;;;;;;;9.54;80.66;99027.78;5100006;28;20208;-60
2024/02/24 09:08:10;;;;;;;8.30;6.17;;;;;;;9.57;80.97;99025.13;5091426;28;20197;-59
2024/02/24 09:10:39;;;;;;;7.90;6.67;;;;;;;9.59;80.47;99035.38;5092040;28;20269;-61
2024/02/24 09:13:08;;;;;;;9.30;6.47;;;;;;;9.61;80.74;99046.44;5092073;28;20243;-60
2024/02/24 09:15:36;;;;;;;8.27;5.90;;;;;;;9.60;80.29;99055.88;5093723;28;20684;-62
2024/02/24 09:18:07;;;;;;;9.27;6.27;;;;;;;9.62;80.49;99063.59;5090613;28;20205;-61
2024/02/24 09:20:36;;;;;;;16.77;6.20;;;;;;;9.64;79.78;99066.94;5086830;28;20222;-65
2024/02/24 09:23:04;;;;;;;7.57;6.33;;;;;;;9.62;79.75;99074.72;5090336;28;20200;-65
2024/02/24 09:25:32;;;;;;;7.43;5.90;;;;;;;9.62;79.95;99079.03;5091704;28;20584;-65
2024/02/24 09:28:00;;;;;;;6.97;5.57;;;;;;;9.65;80.04;99084.09;5088561;28;20201;-68
2024/02/24 09:30:28;;;;;;;8.73;5.90;;;;;;;9.72;79.77;99083.06;5085441;28;20197;-64
2024/02/24 09:32:57;;;;;;;8.30;5.90;;;;;;;9.76;79.52;99089.84;5090549;28;20200;-62
2024/02/24 09:35:26;;;;;;;10.03;6.03;;;;;;;9.82;79.47;99091.41;5092412;28;20232;-63
2024/02/24 09:37:55;;;;;;;7.30;6.00;;;;;;;9.88;79.72;99086.13;5084457;28;20657;-62
2024/02/24 09:40:23;;;;;;;11.27;6.47;;;;;;;9.96;79.53;99097.06;5095244;28;20761;-65
2024/02/24 09:42:51;;;;;;;9.20;6.60;;;;;;;10.03;79.33;99100.34;5095220;28;20250;-67
2024/02/24 09:45:23;;;;;;;8.17;6.10;;;;;;;10.05;78.66;99102.00;5090816;28;20212;-69
2024/02/24 09:47:51;;;;;;;7.90;6.07;;;;;;;10.08;78.45;99101.91;5092186;28;20692;-62
2024/02/24 09:50:19;;;;;;;9.13;6.07;;;;;;;10.08;78.38;99117.34;5091377;28;20673;-65
2024/02/24 09:52:49;;;;;;;9.33;5.63;;;;;;;10.07;78.17;99107.94;5093682;28;20212;-63
2024/02/24 09:55:18;;;;;;;11.47;6.50;;;;;;;10.08;78.54;99108.78;5091466;28;20205;-67
2024/02/24 09:57:46;;;;;;;9.13;6.80;;;;;;;10.11;78.70;99099.25;5088250;28;20204;-65
2024/02/24 10:00:15;;;;;;;8.23;6.37;;;;;;;10.22;78.71;99113.59;5096411;28;20282;-65
2024/02/24 10:02:43;;;;;;;9.60;6.70;;;;;;;10.26;78.26;99104.94;5090751;28;20270;-64
2024/02/24 10:05:11;;;;;;;6.77;6.00;;;;;;;10.30;77.87;99115.13;5089219;28;20200;-66
2024/02/24 10:07:39;;;;;;;8.00;5.80;;;;;;;10.42;78.26;99120.84;5091516;28;20539;-65
2024/02/24 10:10:13;;;;;;;7.70;6.47;;;;;;;10.54;77.63;99121.38;5090906;28;20193;-63
2024/02/24 10:12:56;;;;;;;8.37;5.53;;;;;;;10.69;76.75;99114.97;5083727;28;20320;-64
2024/02/24 10:15:24;;;;;;;6.40;5.17;;;;;;;10.75;75.94;99119.97;5085612;28;20298;-65
2024/02/24 10:17:55;;;;;;;10.17;5.80;;;;;;;10.82;75.94;99120.63;5087749;28;20730;-65
2024/02/24 10:20:24;;;;;;;5.93;5.07;;;;;;;10.84;76.05;99129.16;5084845;28;21237;-65
2024/02/24 10:22:52;;;;;;;5.97;4.60;;;;;;;10.88;75.57;99130.78;5088462;28;20233;-67
2024/02/24 10:25:21;;;;;;;6.60;4.77;;;;;;;10.85;75.02;99117.97;5090716;28;20205;-68
2024/02/24 10:27:50;;;;;;;4.37;3.70;;;;;;;10.82;74.08;99131.78;5090281;28;20208;-65
2024/02/24 10:30:19;;;;;;;4.67;3.77;;;;;;;10.81;74.09;99145.56;5086643;28;20282;-62
2024/02/24 10:32:53;;;;;;;4.07;3.20;;;;;;;10.69;74.13;99148.47;5086348;28;20661;-64
2024/02/24 10:35:22;;;;;;;3.93;2.77;;;;;;;10.53;73.13;99149.72;5081695;28;20205;-63
2024/02/24 10:37:55;;;;;;;4.77;2.60;;;;;;;10.45;72.77;99162.81;5085446;28;20215;-66
2024/02/24 10:40:45;;;;;;;2.63;2.43;;;;;;;10.31;73.46;99159.72;5074005;28;20712;-63
2024/02/24 10:43:14;;;;;;;3.67;3.07;;;;;;;10.36;74.41;99168.19;5083994;28;20208;-65
2024/02/24 10:45:42;;;;;;;3.70;2.77;;;;;;;10.48;74.44;99173.03;5087330;28;20208;-63
2024/02/24 10:48:10;;;;;;;3.00;2.50;;;;;;;10.53;73.19;99185.78;5086280;28;20726;-65
2024/02/24 10:50:42;;;;;;;2.90;2.60;;;;;;;10.56;72.90;99181.41;5087992;28;20239;-65
2024/02/24 10:53:14;;;;;;;2.40;2.10;;;;;;;10.62;72.39;99188.16;5082550;28;20259;-67
2024/02/24 10:55:44;;;;;;;2.13;1.90;;;;;;;10.61;70.67;99200.19;5078755;28;20288;-62
2024/02/24 10:58:19;;;;;;;2.20;2.00;;;;;;;10.57;70.80;99192.59;5083042;28;20205;-66
2024/02/24 11:00:48;;;;;;;2.80;2.03;;;;;;;10.59;70.32;99209.66;5083257;28;20219;-63
2024/02/24 11:03:16;;;;;;;1.60;1.37;;;;;;;10.51;68.64;99197.88;5080740;28;20681;-65
2024/02/24 11:05:46;;;;;;;1.47;1.30;;;;;;;10.37;68.57;99226.53;5089619;28;20761;-63
2024/02/24 11:08:35;;;;;;;1.40;1.30;;;;;;;10.27;69.10;99228.50;5090246;28;20318;-64
2024/02/24 11:11:08;;;;;;;1.37;1.10;;;;;;;10.29;69.79;99237.03;5089935;28;20718;-62
2024/02/24 11:13:36;;;;;;;1.93;1.40;;;;;;;10.36;69.36;99242.88;5088331;28;20244;-63
2024/02/24 11:16:05;;;;;;;1.63;1.17;;;;;;;10.43;69.31;99254.72;5086047;28;20205;-63
2024/02/24 11:18:55;;;;;;;1.10;0.93;;;;;;;10.39;67.17;99240.25;5085928;28;20331;-62
2024/02/24 11:22:01;;;;;;;1.90;1.43;;;;;;;10.35;66.91;99251.50;5090699;28;20256;-63
2024/02/24 11:24:33;;;;;;;2.37;1.30;;;;;;;10.46;66.78;99249.50;5091564;28;20208;-64
2024/02/24 11:27:06;;;;;;;1.20;1.10;;;;;;;10.41;66.92;99264.22;5088855;28;20203;-64
2024/02/24 11:29:35;;;;;;;1.47;1.23;;;;;;;10.32;66.46;99272.16;5089522;28;20718;-62
2024/02/24 11:32:06;;;;;;;3.47;1.50;;;;;;;10.14;67.18;99270.81;5089022;28;20227;-63
2024/02/24 11:34:35;;;;;;;2.73;1.83;;;;;;;10.04;68.96;99285.59;5083043;28;20282;-60
2024/02/24 11:37:04;;;;;;;3.30;2.47;;;;;;;9.97;72.83;99284.03;5091182;28;20254;-62
2024/02/24 11:39:33;;;;;;;4.03;3.10;;;;;;;9.89;73.22;99307.34;5086903;28;20196;-61